sensor_id;sensor_type;location;lat;lon;timestamp;P1;durP1;ratioP1;P2;durP2;ratioP2
73557;SDS011;61829;53.286;10.434;2022-08-01T00:01:59;13.25;;;8.75;;
73557;SDS011;61829;53.286;10.434;2022-08-01T00:04:25;10.25;;;8.32;;
73557;SDS011;61829;53.286;10.434;2022-08-01T00:06:51;11.50;;;8.23;;
73557;SDS011;61829;53.286;10.434;2022-08-01T00:09:18;12.55;;;8.02;;
73557;SDS011;61829;53.286;10.434;2022-08-01T00:14:10;11.52;;;8.02;;
73557;SDS011;61829;53.286;10.434;2022-08-01T00:16:36;13.85;;;8.88;;
73557;SDS011;61829;53.286;10.434;2022-08-01T00:19:03;10.68;;;7.40;;
73557;SDS011;61829;53.286;10.434;2022-08-01T00:21:29;9.45;;;7.43;;
73557;SDS011;61829;53.286;10.434;2022-08-01T00:23:55;13.40;;;9.10;;
73557;SDS011;61829;53.286;10.434;2022-08-01T00:26:21;11.30;;;8.50;;
73557;SDS011;61829;53.286;10.434;2022-08-01T00:28:47;11.48;;;7.90;;
73557;SDS011;61829;53.286;10.434;2022-08-01T00:31:13;10.88;;;9.15;;
73557;SDS011;61829;53.286;10.434;2022-08-01T00:33:39;11.27;;;8.82;;
73557;SDS011;61829;53.286;10.434;2022-08-01T00:36:06;14.50;;;8.93;;
73557;SDS011;61829;53.286;10.434;2022-08-01T00:38:32;11.95;;;8.95;;
73557;SDS011;61829;53.286;10.434;2022-08-01T00:40:58;12.02;;;8.13;;
73557;SDS011;61829;53.286;10.434;2022-08-01T00:43:24;10.73;;;8.23;;
73557;SDS011;61829;53.286;10.434;2022-08-01T00:45:50;14.35;;;9.65;;
73557;SDS011;61829;53.286;10.434;2022-08-01T00:48:16;12.52;;;8.60;;
73557;SDS011;61829;53.286;10.434;2022-08-01T00:50:42;14.95;;;10.20;;
73557;SDS011;61829;53.286;10.434;2022-08-01T00:53:09;10.70;;;9.02;;
73557;SDS011;61829;53.286;10.434;2022-08-01T00:55:35;12.93;;;10.45;;
73557;SDS011;61829;53.286;10.434;2022-08-01T00:58:01;11.85;;;8.95;;
73557;SDS011;61829;53.286;10.434;2022-08-01T01:00:27;12.05;;;9.60;;
73557;SDS011;61829;53.286;10.434;2022-08-01T01:02:53;12.20;;;8.98;;
73557;SDS011;61829;53.286;10.434;2022-08-01T01:05:20;12.98;;;10.35;;
73557;SDS011;61829;53.286;10.434;2022-08-01T01:13:18;13.80;;;10.68;;
73557;SDS011;61829;53.286;10.434;2022-08-01T01:15:58;15.02;;;9.85;;
73557;SDS011;61829;53.286;10.434;2022-08-01T01:18:29;12.35;;;9.27;;
73557;SDS011;61829;53.286;10.434;2022-08-01T01:29:56;11.57;;;8.90;;
73557;SDS011;61829;53.286;10.434;2022-08-01T01:32:35;14.05;;;10.65;;
73557;SDS011;61829;53.286;10.434;2022-08-01T01:35:06;15.63;;;11.35;;
73557;SDS011;61829;53.286;10.434;2022-08-01T01:37:48;11.43;;;9.77;;
73557;SDS011;61829;53.286;10.434;2022-08-01T01:40:16;12.18;;;9.15;;
73557;SDS011;61829;53.286;10.434;2022-08-01T01:42:44;13.77;;;10.32;;
73557;SDS011;61829;53.286;10.434;2022-08-01T01:45:14;13.80;;;10.68;;
73557;SDS011;61829;53.286;10.434;2022-08-01T01:47:41;14.20;;;11.05;;
73557;SDS011;61829;53.286;10.434;2022-08-01T01:50:09;12.40;;;10.13;;
73557;SDS011;61829;53.286;10.434;2022-08-01T01:52:39;13.48;;;10.63;;
73557;SDS011;61829;53.286;10.434;2022-08-01T01:55:08;12.02;;;9.70;;
73557;SDS011;61829;53.286;10.434;2022-08-01T01:57:36;14.18;;;10.07;;
73557;SDS011;61829;53.286;10.434;2022-08-01T02:00:06;15.43;;;10.07;;
73557;SDS011;61829;53.286;10.434;2022-08-01T02:02:35;14.45;;;10.20;;
73557;SDS011;61829;53.286;10.434;2022-08-01T02:05:03;13.50;;;9.63;;
73557;SDS011;61829;53.286;10.434;2022-08-01T02:07:32;14.98;;;10.95;;
73557;SDS011;61829;53.286;10.434;2022-08-01T02:10:12;17.08;;;11.32;;
73557;SDS011;61829;53.286;10.434;2022-08-01T02:12:57;20.50;;;11.40;;
73557;SDS011;61829;53.286;10.434;2022-08-01T02:15:40;14.77;;;11.18;;
73557;SDS011;61829;53.286;10.434;2022-08-01T02:18:06;13.18;;;10.15;;
73557;SDS011;61829;53.286;10.434;2022-08-01T02:20:34;15.45;;;10.68;;
73557;SDS011;61829;53.286;10.434;2022-08-01T02:23:10;16.98;;;10.15;;
73557;SDS011;61829;53.286;10.434;2022-08-01T02:28:05;15.57;;;11.00;;
73557;SDS011;61829;53.286;10.434;2022-08-01T02:30:33;17.45;;;11.52;;
73557;SDS011;61829;53.286;10.434;2022-08-01T02:33:04;18.83;;;11.20;;
73557;SDS011;61829;53.286;10.434;2022-08-01T02:35:35;14.70;;;10.48;;
73557;SDS011;61829;53.286;10.434;2022-08-01T02:38:05;13.90;;;9.63;;
73557;SDS011;61829;53.286;10.434;2022-08-01T02:40:34;15.95;;;10.88;;
73557;SDS011;61829;53.286;10.434;2022-08-01T02:43:05;11.82;;;8.75;;
73557;SDS011;61829;53.286;10.434;2022-08-01T02:45:35;10.27;;;8.00;;
73557;SDS011;61829;53.286;10.434;2022-08-01T02:48:07;14.88;;;10.32;;
73557;SDS011;61829;53.286;10.434;2022-08-01T02:50:37;15.93;;;9.70;;
73557;SDS011;61829;53.286;10.434;2022-08-01T02:53:05;13.02;;;9.70;;
73557;SDS011;61829;53.286;10.434;2022-08-01T02:55:35;13.00;;;9.05;;
73557;SDS011;61829;53.286;10.434;2022-08-01T02:58:09;15.13;;;9.27;;
73557;SDS011;61829;53.286;10.434;2022-08-01T03:00:37;18.98;;;9.57;;
73557;SDS011;61829;53.286;10.434;2022-08-01T03:03:06;13.98;;;8.55;;
73557;SDS011;61829;53.286;10.434;2022-08-01T03:05:33;12.82;;;9.32;;
73557;SDS011;61829;53.286;10.434;2022-08-01T03:08:00;10.88;;;8.02;;
73557;SDS011;61829;53.286;10.434;2022-08-01T03:10:28;11.05;;;7.63;;
73557;SDS011;61829;53.286;10.434;2022-08-01T03:12:55;13.45;;;8.75;;
73557;SDS011;61829;53.286;10.434;2022-08-01T03:15:24;12.48;;;8.40;;
73557;SDS011;61829;53.286;10.434;2022-08-01T03:17:53;11.00;;;8.20;;
73557;SDS011;61829;53.286;10.434;2022-08-01T03:20:21;10.88;;;7.75;;
73557;SDS011;61829;53.286;10.434;2022-08-01T03:22:50;13.18;;;8.05;;
73557;SDS011;61829;53.286;10.434;2022-08-01T03:25:18;10.75;;;7.65;;
73557;SDS011;61829;53.286;10.434;2022-08-01T03:27:47;11.27;;;7.40;;
73557;SDS011;61829;53.286;10.434;2022-08-01T03:30:20;11.23;;;6.72;;
73557;SDS011;61829;53.286;10.434;2022-08-01T03:32:48;8.45;;;6.25;;
73557;SDS011;61829;53.286;10.434;2022-08-01T03:35:14;11.30;;;7.32;;
73557;SDS011;61829;53.286;10.434;2022-08-01T03:37:50;10.05;;;6.90;;
73557;SDS011;61829;53.286;10.434;2022-08-01T03:43:19;13.98;;;7.63;;
73557;SDS011;61829;53.286;10.434;2022-08-01T03:45:51;10.48;;;7.18;;
73557;SDS011;61829;53.286;10.434;2022-08-01T03:48:19;12.13;;;7.60;;
73557;SDS011;61829;53.286;10.434;2022-08-01T03:50:52;12.02;;;6.70;;
73557;SDS011;61829;53.286;10.434;2022-08-01T03:53:24;11.63;;;6.43;;
73557;SDS011;61829;53.286;10.434;2022-08-01T03:55:54;10.40;;;6.57;;
73557;SDS011;61829;53.286;10.434;2022-08-01T03:58:24;12.57;;;7.28;;
73557;SDS011;61829;53.286;10.434;2022-08-01T04:00:50;11.45;;;6.95;;
73557;SDS011;61829;53.286;10.434;2022-08-01T04:03:17;9.77;;;6.28;;
73557;SDS011;61829;53.286;10.434;2022-08-01T04:05:44;13.57;;;6.95;;
73557;SDS011;61829;53.286;10.434;2022-08-01T04:08:10;15.13;;;6.45;;
73557;SDS011;61829;53.286;10.434;2022-08-01T04:10:36;10.98;;;6.65;;
73557;SDS011;61829;53.286;10.434;2022-08-01T04:13:02;8.13;;;6.28;;
73557;SDS011;61829;53.286;10.434;2022-08-01T04:15:28;8.20;;;6.15;;
73557;SDS011;61829;53.286;10.434;2022-08-01T04:17:54;9.68;;;5.90;;
73557;SDS011;61829;53.286;10.434;2022-08-01T04:20:21;11.25;;;7.18;;
73557;SDS011;61829;53.286;10.434;2022-08-01T04:22:47;8.68;;;6.03;;
73557;SDS011;61829;53.286;10.434;2022-08-01T04:25:21;9.13;;;5.88;;
73557;SDS011;61829;53.286;10.434;2022-08-01T04:27:58;8.25;;;6.10;;
73557;SDS011;61829;53.286;10.434;2022-08-01T04:30:30;10.95;;;6.88;;
73557;SDS011;61829;53.286;10.434;2022-08-01T04:33:00;9.10;;;6.22;;
73557;SDS011;61829;53.286;10.434;2022-08-01T04:35:28;10.55;;;6.65;;
73557;SDS011;61829;53.286;10.434;2022-08-01T04:37:55;9.55;;;6.78;;
73557;SDS011;61829;53.286;10.434;2022-08-01T04:40:24;12.85;;;6.97;;
73557;SDS011;61829;53.286;10.434;2022-08-01T04:42:51;9.13;;;6.57;;
73557;SDS011;61829;53.286;10.434;2022-08-01T04:45:17;10.60;;;7.00;;
73557;SDS011;61829;53.286;10.434;2022-08-01T04:47:44;8.10;;;6.30;;
73557;SDS011;61829;53.286;10.434;2022-08-01T04:50:12;8.13;;;5.78;;
73557;SDS011;61829;53.286;10.434;2022-08-01T04:52:38;8.85;;;6.40;;
73557;SDS011;61829;53.286;10.434;2022-08-01T04:55:08;9.13;;;5.70;;
73557;SDS011;61829;53.286;10.434;2022-08-01T04:57:36;8.80;;;5.55;;
73557;SDS011;61829;53.286;10.434;2022-08-01T05:00:04;9.02;;;5.57;;
73557;SDS011;61829;53.286;10.434;2022-08-01T05:02:32;11.38;;;6.07;;
73557;SDS011;61829;53.286;10.434;2022-08-01T05:04:58;7.18;;;5.60;;
73557;SDS011;61829;53.286;10.434;2022-08-01T05:07:24;9.05;;;6.03;;
73557;SDS011;61829;53.286;10.434;2022-08-01T05:09:50;9.98;;;6.13;;
73557;SDS011;61829;53.286;10.434;2022-08-01T05:12:16;7.78;;;5.15;;
73557;SDS011;61829;53.286;10.434;2022-08-01T05:14:43;11.10;;;5.53;;
73557;SDS011;61829;53.286;10.434;2022-08-01T05:17:10;7.63;;;5.10;;
73557;SDS011;61829;53.286;10.434;2022-08-01T05:19:36;7.85;;;4.97;;
73557;SDS011;61829;53.286;10.434;2022-08-01T05:22:05;7.65;;;4.15;;
73557;SDS011;61829;53.286;10.434;2022-08-01T05:24:39;6.28;;;4.43;;
73557;SDS011;61829;53.286;10.434;2022-08-01T05:27:06;7.47;;;4.40;;
73557;SDS011;61829;53.286;10.434;2022-08-01T05:29:33;5.68;;;4.20;;
73557;SDS011;61829;53.286;10.434;2022-08-01T05:31:59;7.30;;;3.67;;
73557;SDS011;61829;53.286;10.434;2022-08-01T05:34:25;6.28;;;4.00;;
73557;SDS011;61829;53.286;10.434;2022-08-01T05:36:52;5.32;;;3.72;;
73557;SDS011;61829;53.286;10.434;2022-08-01T05:39:18;4.68;;;3.35;;
73557;SDS011;61829;53.286;10.434;2022-08-01T05:41:44;6.15;;;3.50;;
73557;SDS011;61829;53.286;10.434;2022-08-01T05:44:10;4.80;;;3.03;;
73557;SDS011;61829;53.286;10.434;2022-08-01T05:46:36;6.60;;;3.78;;
73557;SDS011;61829;53.286;10.434;2022-08-01T05:49:04;5.72;;;3.05;;
73557;SDS011;61829;53.286;10.434;2022-08-01T05:51:31;7.90;;;2.90;;
73557;SDS011;61829;53.286;10.434;2022-08-01T05:53:57;3.60;;;2.70;;
73557;SDS011;61829;53.286;10.434;2022-08-01T05:56:23;3.58;;;2.40;;
73557;SDS011;61829;53.286;10.434;2022-08-01T05:58:50;4.22;;;2.60;;
73557;SDS011;61829;53.286;10.434;2022-08-01T06:01:17;5.53;;;2.53;;
73557;SDS011;61829;53.286;10.434;2022-08-01T06:03:44;5.07;;;2.50;;
73557;SDS011;61829;53.286;10.434;2022-08-01T06:06:11;4.32;;;2.25;;
73557;SDS011;61829;53.286;10.434;2022-08-01T06:08:37;2.97;;;1.95;;
73557;SDS011;61829;53.286;10.434;2022-08-01T06:11:03;7.57;;;2.55;;
73557;SDS011;61829;53.286;10.434;2022-08-01T06:13:29;4.00;;;2.22;;
73557;SDS011;61829;53.286;10.434;2022-08-01T06:15:55;3.10;;;2.05;;
73557;SDS011;61829;53.286;10.434;2022-08-01T06:18:21;6.75;;;2.40;;
73557;SDS011;61829;53.286;10.434;2022-08-01T06:20:47;3.33;;;2.00;;
73557;SDS011;61829;53.286;10.434;2022-08-01T06:23:13;3.83;;;1.73;;
73557;SDS011;61829;53.286;10.434;2022-08-01T06:25:41;4.75;;;2.20;;
73557;SDS011;61829;53.286;10.434;2022-08-01T06:28:08;3.08;;;1.92;;
73557;SDS011;61829;53.286;10.434;2022-08-01T06:30:34;2.92;;;2.00;;
73557;SDS011;61829;53.286;10.434;2022-08-01T06:33:02;4.72;;;2.38;;
73557;SDS011;61829;53.286;10.434;2022-08-01T06:35:28;5.05;;;2.40;;
73557;SDS011;61829;53.286;10.434;2022-08-01T06:37:55;3.00;;;2.08;;
73557;SDS011;61829;53.286;10.434;2022-08-01T06:40:22;4.82;;;2.42;;
73557;SDS011;61829;53.286;10.434;2022-08-01T06:42:48;5.75;;;2.60;;
73557;SDS011;61829;53.286;10.434;2022-08-01T06:45:14;3.08;;;2.22;;
73557;SDS011;61829;53.286;10.434;2022-08-01T06:47:42;5.18;;;2.60;;
73557;SDS011;61829;53.286;10.434;2022-08-01T06:50:09;4.70;;;2.35;;
73557;SDS011;61829;53.286;10.434;2022-08-01T06:52:36;3.92;;;2.30;;
73557;SDS011;61829;53.286;10.434;2022-08-01T06:55:03;5.97;;;2.83;;
73557;SDS011;61829;53.286;10.434;2022-08-01T06:57:30;3.70;;;2.60;;
73557;SDS011;61829;53.286;10.434;2022-08-01T06:59:56;3.92;;;2.60;;
73557;SDS011;61829;53.286;10.434;2022-08-01T07:02:22;3.10;;;2.47;;
73557;SDS011;61829;53.286;10.434;2022-08-01T07:04:48;4.82;;;2.67;;
73557;SDS011;61829;53.286;10.434;2022-08-01T07:07:14;4.85;;;2.80;;
73557;SDS011;61829;53.286;10.434;2022-08-01T07:09:40;6.20;;;2.72;;
73557;SDS011;61829;53.286;10.434;2022-08-01T07:12:07;5.57;;;3.20;;
73557;SDS011;61829;53.286;10.434;2022-08-01T07:14:34;4.22;;;3.08;;
73557;SDS011;61829;53.286;10.434;2022-08-01T07:17:00;4.63;;;3.42;;
73557;SDS011;61829;53.286;10.434;2022-08-01T07:19:26;5.13;;;3.42;;
73557;SDS011;61829;53.286;10.434;2022-08-01T07:21:53;4.78;;;3.38;;
73557;SDS011;61829;53.286;10.434;2022-08-01T07:24:19;5.90;;;3.58;;
73557;SDS011;61829;53.286;10.434;2022-08-01T07:26:46;4.15;;;3.75;;
73557;SDS011;61829;53.286;10.434;2022-08-01T07:29:14;5.20;;;4.13;;
73557;SDS011;61829;53.286;10.434;2022-08-01T07:31:40;6.38;;;3.90;;
73557;SDS011;61829;53.286;10.434;2022-08-01T07:34:07;4.72;;;3.92;;
73557;SDS011;61829;53.286;10.434;2022-08-01T07:36:33;5.25;;;3.03;;
73557;SDS011;61829;53.286;10.434;2022-08-01T07:38:58;5.40;;;3.13;;
73557;SDS011;61829;53.286;10.434;2022-08-01T07:41:24;5.45;;;3.28;;
73557;SDS011;61829;53.286;10.434;2022-08-01T07:43:50;3.72;;;2.70;;
73557;SDS011;61829;53.286;10.434;2022-08-01T07:46:16;3.85;;;2.42;;
73557;SDS011;61829;53.286;10.434;2022-08-01T07:48:43;5.65;;;3.15;;
73557;SDS011;61829;53.286;10.434;2022-08-01T07:51:09;4.78;;;2.55;;
73557;SDS011;61829;53.286;10.434;2022-08-01T07:53:36;4.18;;;2.80;;
73557;SDS011;61829;53.286;10.434;2022-08-01T07:56:03;4.22;;;2.63;;
73557;SDS011;61829;53.286;10.434;2022-08-01T07:58:33;4.55;;;2.60;;
73557;SDS011;61829;53.286;10.434;2022-08-01T08:00:59;5.97;;;3.00;;
73557;SDS011;61829;53.286;10.434;2022-08-01T08:03:25;6.57;;;3.03;;
73557;SDS011;61829;53.286;10.434;2022-08-01T08:05:52;5.30;;;2.78;;
73557;SDS011;61829;53.286;10.434;2022-08-01T08:08:18;6.80;;;2.50;;
73557;SDS011;61829;53.286;10.434;2022-08-01T08:10:44;5.28;;;2.40;;
73557;SDS011;61829;53.286;10.434;2022-08-01T08:13:10;5.45;;;2.40;;
73557;SDS011;61829;53.286;10.434;2022-08-01T08:15:36;6.93;;;2.97;;
73557;SDS011;61829;53.286;10.434;2022-08-01T08:18:03;8.23;;;2.97;;
73557;SDS011;61829;53.286;10.434;2022-08-01T08:20:29;4.13;;;2.47;;
73557;SDS011;61829;53.286;10.434;2022-08-01T08:22:55;6.60;;;2.65;;
73557;SDS011;61829;53.286;10.434;2022-08-01T08:25:24;5.75;;;2.53;;
73557;SDS011;61829;53.286;10.434;2022-08-01T08:27:51;4.90;;;2.42;;
73557;SDS011;61829;53.286;10.434;2022-08-01T08:30:17;5.13;;;2.17;;
73557;SDS011;61829;53.286;10.434;2022-08-01T08:32:44;5.10;;;2.10;;
73557;SDS011;61829;53.286;10.434;2022-08-01T08:35:10;7.88;;;2.20;;
73557;SDS011;61829;53.286;10.434;2022-08-01T08:37:36;4.15;;;2.30;;
73557;SDS011;61829;53.286;10.434;2022-08-01T08:40:04;7.93;;;2.15;;
73557;SDS011;61829;53.286;10.434;2022-08-01T08:42:30;7.03;;;2.20;;
73557;SDS011;61829;53.286;10.434;2022-08-01T08:44:56;10.52;;;2.65;;
73557;SDS011;61829;53.286;10.434;2022-08-01T08:47:23;5.90;;;2.53;;
73557;SDS011;61829;53.286;10.434;2022-08-01T08:49:53;5.93;;;2.92;;
73557;SDS011;61829;53.286;10.434;2022-08-01T08:52:21;8.95;;;3.42;;
73557;SDS011;61829;53.286;10.434;2022-08-01T08:54:51;6.07;;;2.75;;
73557;SDS011;61829;53.286;10.434;2022-08-01T08:57:19;7.25;;;2.60;;
73557;SDS011;61829;53.286;10.434;2022-08-01T08:59:46;10.73;;;3.10;;
73557;SDS011;61829;53.286;10.434;2022-08-01T09:02:13;12.40;;;3.45;;
73557;SDS011;61829;53.286;10.434;2022-08-01T09:04:40;10.57;;;3.42;;
73557;SDS011;61829;53.286;10.434;2022-08-01T09:07:07;12.95;;;3.28;;
73557;SDS011;61829;53.286;10.434;2022-08-01T09:09:34;10.52;;;3.90;;
73557;SDS011;61829;53.286;10.434;2022-08-01T09:12:00;9.35;;;3.50;;
73557;SDS011;61829;53.286;10.434;2022-08-01T09:14:26;16.60;;;3.97;;
73557;SDS011;61829;53.286;10.434;2022-08-01T09:17:03;7.40;;;2.92;;
73557;SDS011;61829;53.286;10.434;2022-08-01T09:22:10;8.00;;;2.97;;
73557;SDS011;61829;53.286;10.434;2022-08-01T09:24:38;7.70;;;3.25;;
73557;SDS011;61829;53.286;10.434;2022-08-01T09:27:19;10.00;;;3.35;;
73557;SDS011;61829;53.286;10.434;2022-08-01T09:29:46;11.18;;;3.53;;
73557;SDS011;61829;53.286;10.434;2022-08-01T09:32:12;11.38;;;3.45;;
73557;SDS011;61829;53.286;10.434;2022-08-01T09:34:38;11.63;;;2.92;;
73557;SDS011;61829;53.286;10.434;2022-08-01T09:37:04;11.82;;;3.33;;
73557;SDS011;61829;53.286;10.434;2022-08-01T09:42:00;4.90;;;2.30;;
73557;SDS011;61829;53.286;10.434;2022-08-01T09:44:43;5.63;;;2.58;;
73557;SDS011;61829;53.286;10.434;2022-08-01T09:47:10;6.80;;;2.30;;
73557;SDS011;61829;53.286;10.434;2022-08-01T09:49:39;8.57;;;2.45;;
73557;SDS011;61829;53.286;10.434;2022-08-01T09:52:10;9.05;;;2.60;;
73557;SDS011;61829;53.286;10.434;2022-08-01T09:54:41;7.78;;;2.17;;
73557;SDS011;61829;53.286;10.434;2022-08-01T09:57:09;5.03;;;2.30;;
73557;SDS011;61829;53.286;10.434;2022-08-01T09:59:46;6.57;;;2.30;;
73557;SDS011;61829;53.286;10.434;2022-08-01T10:05:01;4.32;;;1.35;;
73557;SDS011;61829;53.286;10.434;2022-08-01T10:07:30;6.25;;;1.58;;
73557;SDS011;61829;53.286;10.434;2022-08-01T10:09:56;6.07;;;1.30;;
73557;SDS011;61829;53.286;10.434;2022-08-01T10:12:37;8.57;;;2.38;;
73557;SDS011;61829;53.286;10.434;2022-08-01T10:15:06;2.88;;;1.13;;
73557;SDS011;61829;53.286;10.434;2022-08-01T10:17:33;5.95;;;1.77;;
73557;SDS011;61829;53.286;10.434;2022-08-01T10:20:01;6.20;;;1.40;;
73557;SDS011;61829;53.286;10.434;2022-08-01T10:22:28;6.78;;;1.85;;
73557;SDS011;61829;53.286;10.434;2022-08-01T10:24:56;10.50;;;2.03;;
73557;SDS011;61829;53.286;10.434;2022-08-01T10:27:24;7.85;;;1.85;;
73557;SDS011;61829;53.286;10.434;2022-08-01T10:29:54;5.85;;;1.80;;
73557;SDS011;61829;53.286;10.434;2022-08-01T10:32:35;4.82;;;1.63;;
73557;SDS011;61829;53.286;10.434;2022-08-01T10:35:02;4.32;;;1.63;;
73557;SDS011;61829;53.286;10.434;2022-08-01T10:37:29;4.05;;;1.52;;
73557;SDS011;61829;53.286;10.434;2022-08-01T10:39:56;5.90;;;1.50;;
73557;SDS011;61829;53.286;10.434;2022-08-01T10:42:22;3.95;;;1.70;;
73557;SDS011;61829;53.286;10.434;2022-08-01T10:44:49;7.13;;;1.88;;
73557;SDS011;61829;53.286;10.434;2022-08-01T10:47:33;7.93;;;2.00;;
73557;SDS011;61829;53.286;10.434;2022-08-01T10:50:21;7.82;;;1.77;;
73557;SDS011;61829;53.286;10.434;2022-08-01T10:53:07;7.88;;;1.98;;
73557;SDS011;61829;53.286;10.434;2022-08-01T10:55:46;8.40;;;1.70;;
73557;SDS011;61829;53.286;10.434;2022-08-01T11:03:40;6.10;;;2.00;;
73557;SDS011;61829;53.286;10.434;2022-08-01T11:06:23;7.97;;;2.33;;
73557;SDS011;61829;53.286;10.434;2022-08-01T11:08:53;7.78;;;1.98;;
73557;SDS011;61829;53.286;10.434;2022-08-01T11:11:20;8.07;;;2.17;;
73557;SDS011;61829;53.286;10.434;2022-08-01T11:16:41;21.02;;;4.00;;
73557;SDS011;61829;53.286;10.434;2022-08-01T11:19:08;6.13;;;2.50;;
73557;SDS011;61829;53.286;10.434;2022-08-01T11:27:16;9.90;;;2.38;;
73557;SDS011;61829;53.286;10.434;2022-08-01T11:29:42;6.38;;;2.20;;
73557;SDS011;61829;53.286;10.434;2022-08-01T11:32:25;9.57;;;2.50;;
73557;SDS011;61829;53.286;10.434;2022-08-01T11:34:53;6.32;;;2.40;;
73557;SDS011;61829;53.286;10.434;2022-08-01T11:37:27;5.40;;;2.10;;
73557;SDS011;61829;53.286;10.434;2022-08-01T11:43:15;7.80;;;2.03;;
73557;SDS011;61829;53.286;10.434;2022-08-01T11:46:01;4.88;;;1.77;;
73557;SDS011;61829;53.286;10.434;2022-08-01T11:48:27;9.15;;;2.25;;
73557;SDS011;61829;53.286;10.434;2022-08-01T11:50:54;9.05;;;1.70;;
73557;SDS011;61829;53.286;10.434;2022-08-01T11:53:23;7.22;;;1.90;;
73557;SDS011;61829;53.286;10.434;2022-08-01T11:55:53;8.07;;;2.22;;
73557;SDS011;61829;53.286;10.434;2022-08-01T11:58:23;6.78;;;1.80;;
73557;SDS011;61829;53.286;10.434;2022-08-01T12:00:55;6.43;;;1.50;;
73557;SDS011;61829;53.286;10.434;2022-08-01T12:03:23;6.40;;;1.77;;
73557;SDS011;61829;53.286;10.434;2022-08-01T12:05:55;7.45;;;1.92;;
73557;SDS011;61829;53.286;10.434;2022-08-01T12:08:29;6.43;;;1.58;;
73557;SDS011;61829;53.286;10.434;2022-08-01T12:11:05;7.07;;;1.95;;
73557;SDS011;61829;53.286;10.434;2022-08-01T12:13:41;5.78;;;1.80;;
73557;SDS011;61829;53.286;10.434;2022-08-01T12:16:09;7.75;;;1.50;;
73557;SDS011;61829;53.286;10.434;2022-08-01T12:18:42;7.45;;;1.40;;
73557;SDS011;61829;53.286;10.434;2022-08-01T12:21:09;7.55;;;2.00;;
73557;SDS011;61829;53.286;10.434;2022-08-01T12:23:35;9.45;;;1.50;;
73557;SDS011;61829;53.286;10.434;2022-08-01T12:26:01;4.93;;;1.50;;
73557;SDS011;61829;53.286;10.434;2022-08-01T12:28:29;6.32;;;1.30;;
73557;SDS011;61829;53.286;10.434;2022-08-01T12:30:55;4.97;;;1.33;;
73557;SDS011;61829;53.286;10.434;2022-08-01T12:33:21;5.15;;;1.10;;
73557;SDS011;61829;53.286;10.434;2022-08-01T12:35:47;6.50;;;1.30;;
73557;SDS011;61829;53.286;10.434;2022-08-01T12:38:18;6.35;;;1.50;;
73557;SDS011;61829;53.286;10.434;2022-08-01T12:40:47;5.57;;;1.30;;
73557;SDS011;61829;53.286;10.434;2022-08-01T12:43:17;6.03;;;1.40;;
73557;SDS011;61829;53.286;10.434;2022-08-01T12:45:46;9.27;;;1.90;;
73557;SDS011;61829;53.286;10.434;2022-08-01T12:48:15;4.78;;;1.45;;
73557;SDS011;61829;53.286;10.434;2022-08-01T12:50:43;4.50;;;1.30;;
73557;SDS011;61829;53.286;10.434;2022-08-01T12:53:11;5.55;;;1.52;;
73557;SDS011;61829;53.286;10.434;2022-08-01T12:55:48;4.85;;;1.35;;
73557;SDS011;61829;53.286;10.434;2022-08-01T12:58:17;5.30;;;1.30;;
73557;SDS011;61829;53.286;10.434;2022-08-01T13:00:45;4.25;;;1.33;;
73557;SDS011;61829;53.286;10.434;2022-08-01T13:03:16;6.50;;;1.48;;
73557;SDS011;61829;53.286;10.434;2022-08-01T13:10:43;5.35;;;1.63;;
73557;SDS011;61829;53.286;10.434;2022-08-01T13:13:10;6.80;;;1.40;;
73557;SDS011;61829;53.286;10.434;2022-08-01T13:15:38;5.47;;;1.33;;
73557;SDS011;61829;53.286;10.434;2022-08-01T13:24:02;11.40;;;4.90;;
73557;SDS011;61829;53.286;10.434;2022-08-01T13:26:45;11.50;;;3.88;;
73557;SDS011;61829;53.286;10.434;2022-08-01T13:32:14;5.63;;;1.50;;
73557;SDS011;61829;53.286;10.434;2022-08-01T13:34:44;6.47;;;1.50;;
73557;SDS011;61829;53.286;10.434;2022-08-01T13:37:10;6.60;;;1.42;;
73557;SDS011;61829;53.286;10.434;2022-08-01T13:39:36;4.90;;;1.15;;
73557;SDS011;61829;53.286;10.434;2022-08-01T13:42:14;5.93;;;1.40;;
73557;SDS011;61829;53.286;10.434;2022-08-01T13:44:41;4.93;;;1.52;;
73557;SDS011;61829;53.286;10.434;2022-08-01T13:47:07;5.55;;;1.30;;
73557;SDS011;61829;53.286;10.434;2022-08-01T13:49:34;7.55;;;1.65;;
73557;SDS011;61829;53.286;10.434;2022-08-01T13:52:00;6.75;;;1.55;;
73557;SDS011;61829;53.286;10.434;2022-08-01T13:54:27;4.55;;;1.17;;
73557;SDS011;61829;53.286;10.434;2022-08-01T13:56:53;5.53;;;1.48;;
73557;SDS011;61829;53.286;10.434;2022-08-01T13:59:19;3.40;;;1.00;;
73557;SDS011;61829;53.286;10.434;2022-08-01T14:04:12;3.63;;;1.20;;
73557;SDS011;61829;53.286;10.434;2022-08-01T14:06:38;5.10;;;1.40;;
73557;SDS011;61829;53.286;10.434;2022-08-01T14:09:04;4.70;;;1.60;;
73557;SDS011;61829;53.286;10.434;2022-08-01T14:11:31;4.38;;;1.40;;
73557;SDS011;61829;53.286;10.434;2022-08-01T14:16:24;6.32;;;1.33;;
73557;SDS011;61829;53.286;10.434;2022-08-01T14:18:51;5.80;;;1.40;;
73557;SDS011;61829;53.286;10.434;2022-08-01T14:21:17;4.30;;;1.20;;
73557;SDS011;61829;53.286;10.434;2022-08-01T14:23:46;3.58;;;1.02;;
73557;SDS011;61829;53.286;10.434;2022-08-01T14:26:12;3.08;;;1.10;;
73557;SDS011;61829;53.286;10.434;2022-08-01T14:28:39;4.18;;;1.20;;
73557;SDS011;61829;53.286;10.434;2022-08-01T14:31:05;3.92;;;1.35;;
73557;SDS011;61829;53.286;10.434;2022-08-01T14:33:35;7.38;;;1.40;;
73557;SDS011;61829;53.286;10.434;2022-08-01T14:36:01;7.53;;;1.52;;
73557;SDS011;61829;53.286;10.434;2022-08-01T14:38:28;4.10;;;1.38;;
73557;SDS011;61829;53.286;10.434;2022-08-01T14:40:54;4.97;;;1.38;;
73557;SDS011;61829;53.286;10.434;2022-08-01T14:43:20;8.43;;;1.42;;
73557;SDS011;61829;53.286;10.434;2022-08-01T14:45:48;7.72;;;1.77;;
73557;SDS011;61829;53.286;10.434;2022-08-01T14:48:17;3.28;;;1.20;;
73557;SDS011;61829;53.286;10.434;2022-08-01T14:50:43;5.25;;;1.05;;
73557;SDS011;61829;53.286;10.434;2022-08-01T14:53:09;4.43;;;1.40;;
73557;SDS011;61829;53.286;10.434;2022-08-01T14:55:35;7.10;;;1.60;;
73557;SDS011;61829;53.286;10.434;2022-08-01T14:58:01;4.60;;;1.30;;
73557;SDS011;61829;53.286;10.434;2022-08-01T15:00:27;4.28;;;1.30;;
73557;SDS011;61829;53.286;10.434;2022-08-01T15:02:54;9.50;;;1.63;;
73557;SDS011;61829;53.286;10.434;2022-08-01T15:05:20;5.43;;;1.23;;
73557;SDS011;61829;53.286;10.434;2022-08-01T15:07:46;4.22;;;1.27;;
73557;SDS011;61829;53.286;10.434;2022-08-01T15:10:12;6.32;;;1.27;;
73557;SDS011;61829;53.286;10.434;2022-08-01T15:12:41;9.77;;;1.30;;
73557;SDS011;61829;53.286;10.434;2022-08-01T15:15:07;5.55;;;1.20;;
73557;SDS011;61829;53.286;10.434;2022-08-01T15:17:33;6.63;;;1.33;;
73557;SDS011;61829;53.286;10.434;2022-08-01T15:20:02;6.70;;;1.40;;
73557;SDS011;61829;53.286;10.434;2022-08-01T15:22:30;4.07;;;1.45;;
73557;SDS011;61829;53.286;10.434;2022-08-01T15:24:59;5.97;;;1.50;;
73557;SDS011;61829;53.286;10.434;2022-08-01T15:27:27;5.20;;;1.50;;
73557;SDS011;61829;53.286;10.434;2022-08-01T15:29:53;6.15;;;1.45;;
73557;SDS011;61829;53.286;10.434;2022-08-01T15:32:22;4.65;;;1.70;;
73557;SDS011;61829;53.286;10.434;2022-08-01T15:37:15;5.95;;;1.30;;
73557;SDS011;61829;53.286;10.434;2022-08-01T15:42:11;7.07;;;1.50;;
73557;SDS011;61829;53.286;10.434;2022-08-01T15:44:39;6.38;;;1.20;;
73557;SDS011;61829;53.286;10.434;2022-08-01T15:47:07;2.90;;;1.23;;